Domov               UVHVVR             MKGP            O straneh              
ZDRAVSTVENO VARSTVO RASTLIN
  MREŽA AGROMET. POSTAJ
 ► PROGNOSTIČNA OBVESTILA
AGROMETEOROLOŠKI PODATKI -
ARSO
OBVLADOVANJE TVEGANJ ZARADI
NEUGODNIH VREMENSKIH RAZMER
  ► NARAVNE NESREČE
  ► SUŠA/MOČA
  ► NAMAKANJE
  ► ŽLED (gozdarstvo)
KARTOGRAFSKI PRIKAZI
SPLETNE POVEZAVE
PROJEKTI IN PUBLIKACIJE

AGROMETEOROLOŠKA MREŽA: VREMENSKE POSTAJE IN FENOLOŠKA OPAZOVANJA

Pregled podatkov za lokacijo Maribor - BTŠ, meteorološka postaja 35810

Pregled senzorjev na lokaciji

ID Ime Zadnja
vrednost
Datum in čas
zadnje
spremembe
(Lokalni čas)
Tip
senzorja
4297 Omočenost lista (U) 0 U 22.1.2020 01:00 A730WET
1723 Padavine (mm) 0 mm 22.1.2020 01:00 Generic 0.2 mm
1722 Relativna vlaga 2 m (% RH) 93.48 % RH 22.1.2020 01:00 Generic 0 - 100 %
1721 Temperatura 2 m (°C) -6.25 °C 22.1.2020 01:00 Generic -40 - +60 °C
4296 Smer vetra (°) 275.25 ° 22.1.2020 01:00 Generic 0 - 360
4295 Hitrost vetra (km/h) 0.34 km/h 22.1.2020 01:00 Generic 100 km/h

Pregled podatkov zadnjih 24 ur

Zap.
št.
Datum in čas
(Centralno
evropski čas)
Maribor - BTŠ
Omočenost
lista
Padavine Relativna
vlaga
2
m
Temperatura
2
m
Smer
vetra
Hitrost
vetra
1 22.1.2020 01:30
2 22.1.2020 01:00 0 0 93.5 -6.3 275.3 0.3
3 22.1.2020 00:30 0 0 93.5 -6 264.2 0.2
4 22.1.2020 00:00 0 0 93.6 -5.7 243.3 0.5
5 21.1.2020 23:30 0 0 93.9 -5.2 250.1 0.7
6 21.1.2020 23:00 0 0 93.8 -5.3 240.8 0.2
7 21.1.2020 22:30 0 0 94 -4.7 219.1 0.2
8 21.1.2020 22:00 0 0 93.9 -4.7 309.4 0.5
9 21.1.2020 21:30 0 0 93.6 -4.3 358.6 0.3
10 21.1.2020 21:00 0 0 93.8 -3.4 289.6 0.7
11 21.1.2020 20:30 0 0 94 -3.3 91.3 0.2
12 21.1.2020 20:00 0 0 93.6 -3.2 263.6 0.7
13 21.1.2020 19:30 0 0 93 -3 278.3 0.4
14 21.1.2020 19:00 0 0 91.9 -2.6 62.1 0.5
15 21.1.2020 18:30 0 0 89.4 -1.8 339.3 0.3
16 21.1.2020 18:00 2 0 85.8 -0.3 275.2 1
17 21.1.2020 17:30 2 0 82.4 1 82.8 0.8
18 21.1.2020 17:00 0 0 78.7 1.8 79.1 1.2
19 21.1.2020 16:30 0 0 71.1 3.9 78.9 1.5
20 21.1.2020 16:00 0 0 65.2 5.6 72.4 1.7
21 21.1.2020 15:30 0 0 62 6.5 78.7 1.8
22 21.1.2020 15:00 0 0 59.7 7.2 61.5 2.1
23 21.1.2020 14:30 0 0 60.5 7 104.9 2.1
24 21.1.2020 14:00 0 0 61.4 6.5 55.6 2.5
25 21.1.2020 13:30 0 0 61.6 6.5 125.5 2.8
26 21.1.2020 13:00 0 0 61 6.7 79.5 2
27 21.1.2020 12:30 0 0 62.3 6.3 95.8 2.1
28 21.1.2020 12:00 0 0 66.1 5.7 45.3 1.2
29 21.1.2020 11:30 0 0 72.7 4.3 70.9 1.1
30 21.1.2020 11:00 0 0 75.8 3.1 63.9 1.6
31 21.1.2020 10:30 0 0 79.5 1.5 88.3 1.2
32 21.1.2020 10:00 4 0 83.2 0.6 89.8 1.3
33 21.1.2020 09:30 4 0 93 -1.2 118.9 0.7
34 21.1.2020 09:00 0 0 95.6 -3.4 278.2 0.1
35 21.1.2020 08:30 0 0 95.3 -4.8 213.7 0.3
36 21.1.2020 08:00 0 0 94.9 -5.5 240.1 0.1
37 21.1.2020 07:30 0 0 94.8 -5.5 271.1 0.2
38 21.1.2020 07:00 0 0 94.7 -5.4 124.4 0.3
39 21.1.2020 06:30 0 0 95.1 -4.9 318.6 0.6
40 21.1.2020 06:00 0 0 95.4 -4.3 261.3 0.2
41 21.1.2020 05:30 0 0 95.6 -3.9 102.9 0.2
42 21.1.2020 05:00 0 0 95.5 -3.8 185.1 0.4
43 21.1.2020 04:30 0 0 95.3 -4 252.6 0.7
44 21.1.2020 04:00 0 0 94.8 -4.2 268.2 0.2
45 21.1.2020 03:30 0 0 94.8 -3.7 293.9 0.2
46 21.1.2020 03:00 0 0 94.5 -3.2 258.2 0.4
47 21.1.2020 02:30 0 0 94.5 -2.5 136.4 0.4
48 21.1.2020 02:00 0 0 95 -2.1 236.5 0.9
© 2011 Ministrstvo za kmetijstvo, gozdarstvo in prehrano. Vse pravice pridržane.